createdAt,value
2019-02-16T00:06:25.205Z,0.63
2019-02-16T00:16:28.954Z,0.60
2019-02-16T00:26:32.718Z,0.43
2019-02-16T00:36:36.514Z,0.80
2019-02-16T00:46:40.290Z,1.43
2019-02-16T00:56:44.267Z,1.47
2019-02-16T01:06:48.104Z,1.37
2019-02-16T01:16:51.927Z,2.03
2019-02-16T01:26:55.666Z,1.03
2019-02-16T01:36:59.421Z,1.30
2019-02-16T01:47:03.255Z,0.70
2019-02-16T01:57:06.992Z,1.37
2019-02-16T02:07:10.762Z,0.90
2019-02-16T02:17:14.523Z,2.03
2019-02-16T02:27:18.506Z,2.57
2019-02-16T02:37:22.266Z,1.20
2019-02-16T02:47:26.264Z,1.20
2019-02-16T02:57:30.010Z,1.10
2019-02-16T03:07:33.765Z,1.50
2019-02-16T03:17:37.518Z,1.23
2019-02-16T03:27:54.839Z,1.07
2019-02-16T03:38:16.307Z,0.93
2019-02-16T03:48:20.053Z,1.13
2019-02-16T03:58:23.802Z,1.03
2019-02-16T04:08:27.549Z,0.87
2019-02-16T04:18:31.533Z,0.73
2019-02-16T04:28:35.295Z,0.60
2019-02-16T04:38:39.054Z,0.70
2019-02-16T04:48:42.802Z,1.07
2019-02-16T04:58:46.550Z,0.73
2019-02-16T05:08:50.294Z,0.97
2019-02-16T05:18:54.059Z,0.40
2019-02-16T05:28:57.823Z,1.10
2019-02-16T05:39:01.566Z,1.30
2019-02-16T05:49:05.318Z,0.93
2019-02-16T05:59:09.075Z,1.03
2019-02-16T06:09:12.810Z,2.17
2019-02-16T06:19:16.566Z,3.27
2019-02-16T06:29:20.319Z,3.20
2019-02-16T06:39:24.066Z,3.50
2019-02-16T06:49:28.062Z,4.10
2019-02-16T06:59:31.801Z,5.30
2019-02-16T07:09:35.545Z,5.07
2019-02-16T07:19:46.774Z,5.10
2019-02-16T07:29:50.526Z,5.10
2019-02-16T07:39:54.270Z,4.40
2019-02-16T07:50:20.349Z,4.07
2019-02-16T08:00:49.332Z,3.83
2019-02-16T08:11:17.230Z,4.80
2019-02-16T08:21:43.154Z,2.53
2019-02-16T08:31:59.458Z,2.90
2019-02-16T08:42:09.638Z,5.90
2019-02-16T08:52:23.333Z,4.03
2019-02-16T09:02:39.063Z,6.37
2019-02-16T09:12:48.129Z,5.07
2019-02-16T09:23:04.930Z,7.30
2019-02-16T09:33:29.941Z,6.07
2019-02-16T09:43:50.697Z,8.43
2019-02-16T09:54:23.954Z,6.90
2019-02-16T10:04:47.772Z,8.83
2019-02-16T10:15:08.483Z,10.87
2019-02-16T10:25:18.043Z,8.57
2019-02-16T10:35:33.973Z,7.13
2019-02-16T10:45:53.486Z,11.73
2019-02-16T10:56:04.278Z,5.73
2019-02-16T11:06:28.925Z,10.23
2019-02-16T11:16:50.500Z,10.23
2019-02-16T11:27:12.274Z,9.77
2019-02-16T11:37:35.147Z,8.77
2019-02-16T11:47:52.339Z,12.23
2019-02-16T11:58:14.175Z,11.20
2019-02-16T12:08:43.578Z,10.60
2019-02-16T12:19:01.562Z,10.00
2019-02-16T12:29:29.759Z,12.63
2019-02-16T12:39:43.570Z,10.60
2019-02-16T12:49:57.149Z,10.80
2019-02-16T13:00:08.689Z,8.10
2019-02-16T13:10:30.199Z,10.83
2019-02-16T13:20:42.309Z,9.53
2019-02-16T13:30:56.805Z,12.17
2019-02-16T13:41:09.070Z,10.27
2019-02-16T13:51:24.601Z,6.67
2019-02-16T14:01:59.845Z,9.93
2019-02-16T14:12:18.175Z,11.13
2019-02-16T14:22:23.294Z,13.77
2019-02-16T14:32:27.071Z,11.93
2019-02-16T14:42:30.833Z,5.27
2019-02-16T14:52:35.032Z,16.30
2019-02-16T15:02:39.255Z,12.37
2019-02-16T15:12:43.195Z,12.07
2019-02-16T15:22:47.238Z,11.93
2019-02-16T15:33:03.307Z,14.27
2019-02-16T15:43:07.265Z,16.70
2019-02-16T15:55:07.209Z,13.93
2019-02-16T16:05:11.057Z,14.27
2019-02-16T16:15:41.544Z,22.10
2019-02-16T16:25:57.735Z,11.90
2019-02-16T16:36:11.990Z,10.57
2019-02-16T16:46:34.080Z,7.57
2019-02-16T16:56:43.222Z,10.23
2019-02-16T17:07:12.778Z,9.80
2019-02-16T17:17:41.902Z,10.43
2019-02-16T17:27:58.135Z,11.87
2019-02-16T17:38:12.963Z,10.73
2019-02-16T17:48:25.542Z,11.33
2019-02-16T17:58:44.668Z,21.67
2019-02-16T18:09:08.643Z,12.53
2019-02-16T18:19:21.749Z,7.93
2019-02-16T18:29:57.880Z,11.23
2019-02-16T18:40:08.125Z,11.87
2019-02-16T18:50:31.754Z,12.67
2019-02-16T19:00:51.314Z,38.40
2019-02-16T19:11:15.863Z,28.47
2019-02-16T19:21:33.647Z,15.90
2019-02-16T19:31:44.285Z,10.70
2019-02-16T19:41:56.787Z,8.60
2019-02-16T19:52:31.846Z,10.78
2019-02-16T20:02:50.419Z,7.90
2019-02-16T20:13:07.257Z,8.43
2019-02-16T20:23:26.638Z,6.93
2019-02-16T20:33:55.306Z,8.10
2019-02-16T20:44:21.342Z,6.33
2019-02-16T20:54:44.429Z,6.50
2019-02-16T21:04:56.225Z,11.83
2019-02-16T21:15:09.531Z,7.23
2019-02-16T21:25:35.354Z,5.50
2019-02-16T21:36:11.409Z,7.73
2019-02-16T21:46:47.177Z,7.60
2019-02-16T21:57:05.702Z,9.80
2019-02-16T22:07:34.133Z,11.50
2019-02-16T22:17:38.222Z,11.03
2019-02-16T22:27:42.374Z,12.20
2019-02-16T22:37:46.564Z,15.67
2019-02-16T22:47:50.625Z,13.47
2019-02-16T22:57:55.049Z,11.77
2019-02-16T23:08:05.959Z,13.70
2019-02-16T23:18:09.799Z,16.33
2019-02-16T23:28:13.911Z,13.37
2019-02-16T23:38:17.957Z,12.57
2019-02-16T23:48:22.126Z,11.13
2019-02-16T23:58:26.229Z,9.20
